ADDS METAR Data INFO
IDs: Format: Raw Decoded Include TAF

Data at: 0636 UTC 15 Dec 2017

KTEW 150615Z AUTO 00000KT 10SM OVC039 M07/M10 A2997 RMK AO2 T10711105
KTEW 150555Z AUTO 23003KT 10SM OVC039 M07/M10 A2999 RMK AO2 T10711105 11070 21087 410641174
KTEW 150535Z AUTO 00000KT 7SM -SN OVC039 M07/M11 A3000 RMK AO2 T10721107
KTEW 150515Z AUTO 21003KT 10SM -SN OVC037 M07/M11 A3001 RMK AO2 T10731110
KTEW 150455Z AUTO 22003KT 10SM -SN SCT032 OVC040 M07/M11 A3001 RMK AO2 T10721112
KTEW 150435Z AUTO 00000KT 10SM SCT034 OVC040 M07/M11 A3002 RMK AO2 T10731115
KTEW 150415Z AUTO 00000KT 5SM -SN SCT022 SCT029 OVC037 M07/M11 A3002 RMK AO2 T10731115
KTEW 150355Z AUTO 00000KT 4SM -SN SCT022 SCT031 OVC039 M08/M12 A3003 RMK AO2 T10771121
KTEW 150335Z AUTO 00000KT 7SM -SN SCT024 OVC041 M08/M13 A3003 RMK AO2 T10851130
KTEW 150315Z AUTO 00000KT 10SM SCT024 OVC041 M09/M13 A3003 RMK AO2 T10871135
KTEW 150255Z AUTO 00000KT 10SM OVC043 M08/M13 A3003 RMK AO2 T10821131
KTEW 150235Z AUTO 00000KT 10SM OVC041 M08/M13 A3003 RMK AO2 T10811132
KTEW 150215Z AUTO 00000KT 10SM OVC041 M08/M13 A3003 RMK AO2 T10771131
KTEW 150155Z AUTO 00000KT 10SM OVC041 M07/M13 A3003 RMK AO2 T10721128
KTEW 150135Z AUTO 00000KT 10SM -SN SCT036 OVC043 M07/M13 A3004 RMK AO2 T10711127
KTEW 150115Z AUTO 00000KT 10SM SCT034 OVC041 M07/M13 A3004 RMK AO2 T10701130
KTEW 150055Z AUTO 00000KT 10SM OVC041 M07/M13 A3004 RMK AO2 T10701130
KTEW 150035Z AUTO 00000KT 10SM OVC039 M07/M13 A3004 RMK AO2 T10721131
KTEW 150015Z AUTO 00000KT 10SM OVC039 M08/M13 A3004 RMK AO2 T10801135
KTEW 142355Z AUTO 00000KT 10SM OVC039 M09/M14 A3004 RMK AO2 T10861140 11069 21112
KTEW 142335Z AUTO 00000KT 10SM OVC039 M09/M14 A3003 RMK AO2 T10901143
KTEW 142315Z AUTO 00000KT 10SM OVC039 M09/M15 A3003 RMK AO2 T10901146
KTEW 142255Z AUTO 00000KT 10SM OVC041 M09/M15 A3003 RMK AO2 T10891147
KTEW 142235Z AUTO 00000KT 10SM BKN041 M11/M16 A3003 RMK AO2 T11111164
KTEW 142215Z AUTO 00000KT 10SM SCT039 M10/M16 A3003 RMK AO2 T11001156
KTEW 142155Z AUTO 00000KT 10SM BKN037 M08/M15 A3002 RMK AO2 T10801146
KTEW 142135Z AUTO 00000KT 10SM BKN037 M07/M14 A3001 RMK AO2 T10711145
KTEW 142115Z AUTO 00000KT 10SM CLR M07/M15 A3001 RMK AO2 T10721146
KTEW 142055Z AUTO 00000KT 10SM CLR M08/M15 A3001 RMK AO2 T10781152
KTEW 142035Z AUTO 16003KT 10SM CLR M07/M15 A3001 RMK AO2 T10711148
KTEW 142015Z AUTO 00000KT 10SM CLR M07/M15 A3001 RMK AO2 T10711150
KTEW 141955Z AUTO 00000KT 10SM CLR M07/M15 A3001 RMK AO2 T10721150
KTEW 141935Z AUTO 14003KT 10SM CLR M07/M15 A3001 RMK AO2 T10741150
KTEW 141915Z AUTO 15003KT 10SM CLR M08/M15 A3001 RMK AO2 T10791151
KTEW 141855Z AUTO 00000KT 10SM CLR M08/M15 A3002 RMK AO2 T10801153
KTEW 141835Z AUTO 00000KT 10SM CLR M08/M15 A3002 RMK AO2 T10801155
KTEW 141815Z AUTO 00000KT 10SM CLR M07/M15 A3002 RMK AO2 T10701152
KTEW 141755Z AUTO 00000KT 10SM CLR M07/M15 A3003 RMK AO2 T10731154 11072 21174
KTEW 141735Z AUTO 00000KT 10SM CLR M09/M16 A3003 RMK AO2 T10921162
KTEW 141715Z AUTO 15003KT 3SM HZ CLR M10/M17 A3003 RMK AO2 T10961169
KTEW 141655Z AUTO 00000KT 10SM CLR M09/M16 A3002 RMK AO2 T10901162
KTEW 141635Z AUTO 00000KT 10SM CLR M09/M16 A3003 RMK AO2 T10871158
KTEW 141615Z AUTO 27003KT 10SM CLR M09/M16 A3003 RMK AO2 T10951156
KTEW 141555Z AUTO 28003KT 10SM CLR M10/M15 A3003 RMK AO2 T10981155
KTEW 141535Z AUTO 27003KT 10SM CLR M10/M15 A3003 RMK AO2 T11051150
KTEW 141515Z AUTO 25003KT 10SM CLR M11/M14 A3002 RMK AO2 T11151145
KTEW 141455Z AUTO 00000KT 5SM BR CLR M14/M17 A3001 RMK AO2 T11411166
KTEW 141435Z AUTO 00000KT 10SM CLR M16/M19 A2999 RMK AO2 T11631191
KTEW 141415Z AUTO 00000KT 2SM HZ CLR M16/M19 A2998 RMK AO2 T11561188
KTEW 141355Z AUTO 00000KT 1/4SM -SN BKN002 M15/M18 A2996 RMK AO2 T11541182
KTEW 141335Z AUTO 00000KT 1/4SM SN OVC002 M17/M20 A2995 RMK AO2 T11661199
KTEW 141315Z AUTO 29003KT 1/2SM -SN SCT002 M16/M19 A2995 RMK AO2 T11621186
KTEW 141255Z AUTO 00000KT 1 1/4SM -SN VV007 M17/M20 A2993 RMK AO2 T11731205
KTEW 141235Z AUTO 00000KT 5SM BR CLR M14/M17 A2992 RMK AO2 T11451168
KTEW 141215Z AUTO 00000KT 10SM CLR M13/M16 A2992 RMK AO2 T11351162
KTEW 141155Z AUTO 33003KT 10SM CLR M13/M16 A2991 RMK AO2 T11301160 11064 21130
KTEW 141135Z AUTO 33003KT 10SM CLR M12/M16 A2990 RMK AO2 T11251156
KTEW 141115Z AUTO 33005KT 10SM CLR M13/M16 A2990 RMK AO2 T11271160
KTEW 141055Z AUTO 33006KT 10SM CLR M13/M16 A2988 RMK AO2 T11271160
KTEW 141035Z AUTO 33005KT 10SM SCT033 M12/M15 A2986 RMK AO2 T11191155
KTEW 141015Z AUTO 33007KT 10SM BKN033 BKN043 M11/M15 A2985 RMK AO2 T11101150
KTEW 140955Z AUTO 34008KT 10SM SCT030 SCT035 SCT043 M11/M15 A2984 RMK AO2 T11061150
KTEW 140935Z AUTO 34007KT 10SM SCT028 BKN035 BKN046 M10/M14 A2982 RMK AO2 T10981145
KTEW 140915Z AUTO 33011KT 10SM -SN BKN030 OVC046 M09/M14 A2981 RMK AO2 T10921136
KTEW 140855Z AUTO 33009KT 10SM -SN OVC028 M09/M13 A2980 RMK AO2 T10901130
KTEW 140835Z AUTO 33008KT 10SM -SN SCT026 OVC050 M09/M13 A2978 RMK AO2 T10911128
KTEW 140815Z AUTO 33008KT 10SM OVC048 M08/M12 A2976 RMK AO2 T10851122
KTEW 140755Z AUTO 32008G14KT 10SM SCT015 SCT028 OVC048 M08/M12 A2976 RMK AO2 T10821120
KTEW 140735Z AUTO 34012KT 10SM -SN BKN015 BKN020 OVC026 M08/M12 A2973 RMK AO2 T10811117
KTEW 140715Z AUTO 34011G14KT 10SM OVC015 M08/M11 A2971 RMK AO2 T10781113
KTEW 140655Z AUTO 35010G17KT 7SM -SN OVC013 M07/M11 A2969 RMK AO2 T10751110
KTEW 140635Z AUTO 34012KT 10SM OVC011 M07/M10 A2967 RMK AO2 T10711103
KTEW 140615Z AUTO 34012G15KT 10SM OVC011 M06/M10 A2966 RMK AO2 T10651097
KTEW 140555Z AUTO 35014G18KT 10SM OVC011 M06/M09 A2963 RMK AO2 T10621095 11055 21067 410551084
KTEW 140535Z AUTO 35008G14KT 7SM BKN013 BKN017 OVC038 M06/M09 A2962 RMK AO2 T10601090
KTEW 140515Z AUTO 35011G16KT 7SM -SN SCT013 SCT027 OVC041 M06/M09 A2959 RMK AO2 T10621091
KTEW 140455Z AUTO 35010KT 4SM -SN SCT013 BKN029 OVC036 M06/M09 A2958 RMK AO2 T10631092
KTEW 140435Z AUTO 36008KT 3SM -SN BKN026 OVC030 M06/M09 A2956 RMK AO2 T10651092
KTEW 140415Z AUTO 36009KT 2 1/2SM -SN SCT022 BKN029 OVC035 M06/M09 A2954 RMK AO2 T10651094
KTEW 140355Z AUTO 01009G14KT 4SM -SN SCT022 BKN030 OVC035 M07/M09 A2951 RMK AO2 T10661095
KTEW 140335Z AUTO 02009G16KT 2SM -SN SCT010 OVC022 M07/M09 A2949 RMK AO2 T10671095
KTEW 140315Z AUTO 02011G17KT 2 1/2SM -SN SCT007 BKN019 OVC025 M07/M09 A2947 RMK AO2 T10661095
KTEW 140255Z AUTO 02013G19KT 2 1/2SM -SN SCT007 SCT012 OVC023 M06/M09 A2946 RMK AO2 T10601089
KTEW 140235Z AUTO 02009KT 3SM -SN SCT009 BKN025 OVC031 M06/M08 A2944 RMK AO2 T10561082
KTEW 140215Z AUTO 02009G14KT 2 1/2SM -SN BKN023 OVC030 M06/M08 A2943 RMK AO2 T10561081
KTEW 140155Z AUTO 02010KT 3SM -SN BKN023 OVC028 M06/M08 A2941 RMK AO2 T10561081
KTEW 140135Z AUTO 04009KT 3SM -SN OVC021 M05/M08 A2939 RMK AO2 T10551080
KTEW 140115Z AUTO 04007KT 2 1/2SM -SN BKN016 OVC021 M05/M08 A2939 RMK AO2 T10551080
KTEW 140055Z AUTO 06008KT 2SM -SN OVC016 M06/M08 A2938 RMK AO2 T10561080
KTEW 140035Z AUTO 08006KT 1 1/4SM -SN OVC013 M06/M08 A2938 RMK AO2 T10561080
KTEW 140015Z AUTO 08006KT 1 3/4SM -SN BKN013 OVC020 M06/M08 A2938 RMK AO2 T10571082
KTEW 132355Z AUTO 09006KT 1 1/2SM -SN OVC013 M06/M08 A2937 RMK AO2 T10581085 11058 21070
KTEW 132335Z AUTO 09006KT 1 1/4SM -SN OVC013 M06/M08 A2938 RMK AO2 T10591085
KTEW 132315Z AUTO 10006KT 1 1/4SM -SN OVC011 M06/M09 A2937 RMK AO2 T10601086
KTEW 132255Z AUTO 12008G14KT 1 1/4SM SN OVC009 M06/M09 A2938 RMK AO2 T10611087
KTEW 132235Z AUTO 11006KT 1SM SN OVC007 M06/M09 A2939 RMK AO2 T10621087
KTEW 132215Z AUTO 10008KT 3/4SM SN OVC007 M06/M09 A2940 RMK AO2 T10651090
KTEW 132155Z AUTO 12007KT 1/2SM SN OVC010 M06/M09 A2940 RMK AO2 T10651091
KTEW 132135Z AUTO 11005G14KT 1/2SM -SN OVC010 M06/M09 A2940 RMK AO2 T10651092
KTEW 132115Z AUTO 12008KT 3/4SM -SN OVC012 M07/M09 A2940 RMK AO2 T10661095
KTEW 132055Z AUTO 12008KT 1 3/4SM -SN BKN019 OVC024 M06/M10 A2941 RMK AO2 T10651096
KTEW 132035Z AUTO 13007KT 1 3/4SM -SN SCT014 BKN025 OVC043 M07/M10 A2941 RMK AO2 T10661098
KTEW 132015Z AUTO 13009KT 1SM -SN BKN014 OVC021 M07/M10 A2942 RMK AO2 T10671100
KTEW 131955Z AUTO 12010KT 1 1/4SM -SN BKN020 OVC026 M07/M10 A2941 RMK AO2 T10671101
KTEW 131935Z AUTO 12011G16KT 1 1/4SM -SN SCT020 OVC027 M07/M10 A2942 RMK AO2 T10671105
KTEW 131915Z AUTO 12011G16KT 10SM SCT019 OVC032 M06/M11 A2945 RMK AO2 T10651108
KTEW 131855Z AUTO 12009KT 10SM OVC032 M06/M11 A2949 RMK AO2 T10651110